Time;durP1;ratioP1;P1;durP2;ratioP2;P2;SDS_P1;SDS_P2;PMS_P1;PMS_P2;Temp;Humidity;BMP_temperature;BMP_pressure;BME280_temperature;BME280_humidity;BME280_pressure;Samples;Min_cycle;Max_cycle;Signal;HPM_P1;HPM_P2
2022/12/24 00:02:14;;;;;;;29.30;6.30;;;11.80;99.90;;;;;;5087869;28;20222;-89
2022/12/24 00:04:46;;;;;;;34.30;7.30;;;11.80;99.90;;;;;;5064470;28;20181;-89
2022/12/24 00:07:34;;;;;;;24.40;5.73;;;11.70;99.90;;;;;;5093345;28;20168;-87
2022/12/24 00:10:05;;;;;;;24.63;6.53;;;11.70;99.90;;;;;;5098452;28;20164;-90
2022/12/24 00:13:22;;;;;;;23.17;5.83;;;11.60;99.90;;;;;;5079107;28;20210;-89
2022/12/24 00:16:11;;;;;;;28.07;6.17;;;11.60;99.90;;;;;;5086242;28;20244;-89
2022/12/24 00:22:04;;;;;;;29.50;6.20;;;11.60;99.90;;;;;;4999043;28;20192;-89
2022/12/24 00:25:12;;;;;;;20.37;5.20;;;11.60;99.90;;;;;;4991775;28;20172;-89
2022/12/24 00:28:06;;;;;;;25.87;6.57;;;11.60;99.90;;;;;;4993748;28;20246;-89
2022/12/24 00:30:49;;;;;;;28.97;6.83;;;11.70;99.90;;;;;;4997403;28;20238;-89
2022/12/24 00:33:25;;;;;;;28.07;6.40;;;11.70;99.90;;;;;;5037096;28;20201;-90
2022/12/24 00:36:08;;;;;;;28.40;6.33;;;11.60;99.90;;;;;;5057474;28;20203;-88
2022/12/24 00:38:43;;;;;;;23.90;5.73;;;11.40;99.90;;;;;;5057366;28;20184;-90
2022/12/24 00:41:55;;;;;;;31.43;7.50;;;11.30;99.90;;;;;;5066371;28;20268;-90
2022/12/24 00:44:15;;;;;;;27.67;5.77;;;11.40;99.90;;;;;;5082076;28;20169;-90
2022/12/24 00:47:15;;;;;;;24.67;6.97;;;11.30;99.90;;;;;;5073865;28;20164;-90
2022/12/24 00:49:49;;;;;;;24.80;6.07;;;11.30;99.90;;;;;;5071473;28;20217;-90
2022/12/24 00:52:43;;;;;;;30.87;6.17;;;11.30;99.90;;;;;;5068928;28;20183;-90
2022/12/24 01:01:36;;;;;;;26.67;6.57;;;11.40;99.90;;;;;;5084463;28;20552;-90
2022/12/24 01:07:33;;;;;;;28.57;7.00;;;11.60;99.90;;;;;;5097651;28;20183;-91
2022/12/24 01:10:10;;;;;;;28.57;6.63;;;11.60;99.90;;;;;;5084055;28;20233;-90
2022/12/24 01:13:02;;;;;;;26.97;7.00;;;11.50;99.90;;;;;;5060460;28;20569;-90
2022/12/24 01:15:40;;;;;;;33.20;6.67;;;11.40;99.90;;;;;;5061635;28;20251;-90
2022/12/24 01:18:21;;;;;;;29.03;6.53;;;11.40;99.90;;;;;;5084255;28;20227;-90
2022/12/24 01:21:19;;;;;;;27.90;6.17;;;11.40;99.90;;;;;;5066415;28;20176;-90
2022/12/24 01:24:10;;;;;;;;;;;;;;;;;;;;;
2022/12/24 01:27:12;;;;;;;18.63;4.57;;;11.30;99.90;;;;;;5079822;28;20260;-90
2022/12/24 01:30:04;;;;;;;17.60;4.60;;;11.20;99.90;;;;;;5055878;28;20184;-90
2022/12/24 01:33:18;;;;;;;15.30;3.73;;;11.20;99.90;;;;;;5064080;28;20207;-90
2022/12/24 01:36:26;;;;;;;16.27;3.77;;;11.30;99.90;;;;;;5066563;28;20192;-91
2022/12/24 01:39:34;;;;;;;21.93;4.57;;;11.40;99.90;;;;;;5021007;28;20601;-91
2022/12/24 01:45:51;;;;;;;28.77;6.40;;;11.40;99.90;;;;;;5102278;28;20195;-90
2022/12/24 01:48:49;;;;;;;24.43;6.23;;;11.40;99.90;;;;;;5066299;28;20249;-89
2022/12/24 01:51:55;;;;;;;24.70;5.97;;;11.50;99.90;;;;;;5083660;28;20204;-88
2022/12/24 01:54:43;;;;;;;26.10;6.47;;;11.50;99.90;;;;;;5064149;28;20628;-90
2022/12/24 01:57:37;;;;;;;26.70;6.53;;;11.50;99.90;;;;;;5064368;28;20209;-90
2022/12/24 02:00:30;;;;;;;28.80;6.70;;;11.50;99.90;;;;;;5063204;28;20707;-90
2022/12/24 02:03:42;;;;;;;24.20;6.07;;;11.40;99.90;;;;;;5080419;28;20241;-90
2022/12/24 02:06:25;;;;;;;28.40;5.53;;;11.40;99.90;;;;;;5059092;28;20184;-89
2022/12/24 02:08:54;;;;;;;28.83;6.60;;;11.40;99.90;;;;;;5079996;28;20215;-90
2022/12/24 02:11:52;;;;;;;;;;;;;;;;;;;;;
2022/12/24 02:18:06;;;;;;;29.80;6.50;;;11.50;99.90;;;;;;5092317;28;20231;-90
2022/12/24 02:21:12;;;;;;;25.60;6.37;;;11.50;99.90;;;;;;5066139;28;20194;-90
2022/12/24 02:24:56;;;;;;;29.83;5.87;;;11.50;99.90;;;;;;5073834;28;20191;-90
2022/12/24 02:28:00;;;;;;;23.77;5.30;;;11.60;99.90;;;;;;5028165;28;20171;-89
2022/12/24 02:31:09;;;;;;;25.37;5.20;;;11.60;99.90;;;;;;5059828;28;20228;-90
2022/12/24 02:37:30;;;;;;;20.47;5.23;;;11.60;99.90;;;;;;5182299;23;20250;-90
2022/12/24 02:47:30;;;;;;;20.00;5.53;;;11.60;99.90;;;;;;5078262;28;20203;-91
2022/12/24 02:50:39;;;;;;;17.13;5.20;;;11.60;99.90;;;;;;5061012;28;20241;-90
2022/12/24 02:57:03;;;;;;;24.47;6.53;;;11.60;99.90;;;;;;5093852;28;20248;-91
2022/12/24 03:11:16;;;;;;;;;;;;;;;;;;;;;
2022/12/24 03:17:12;;;;;;;20.83;5.20;;;11.20;99.90;;;;;;5000773;28;20781;-91
2022/12/24 03:23:58;;;;;;;21.13;5.93;;;11.10;99.90;;;;;;5016043;28;20574;-91
2022/12/24 03:27:32;;;;;;;20.67;6.10;;;11.20;99.90;;;;;;5018267;28;20179;-93
2022/12/24 03:30:46;;;;;;;19.07;6.07;;;11.10;99.90;;;;;;4983991;28;20204;-90
2022/12/24 03:33:54;;;;;;;20.00;5.47;;;11.20;99.90;;;;;;4928601;29;20218;-91
2022/12/24 03:37:26;;;;;;;27.37;6.53;;;11.20;99.90;;;;;;4919932;29;20218;-91
2022/12/24 03:40:28;;;;;;;24.67;6.57;;;11.30;99.90;;;;;;4927324;29;20207;-90
2022/12/24 03:56:58;;;;;;;25.93;5.93;;;11.50;99.90;;;;;;4804839;29;20190;-91
2022/12/24 04:41:42;;;;;;;;;;;;;;;;;;;;;
2022/12/24 04:44:33;;;;;;;29.67;6.60;;;11.50;99.90;;;;;;5039201;28;20263;-91
2022/12/24 04:51:31;;;;;;;24.97;5.80;;;11.30;99.90;;;;;;5046708;28;20664;-90
2022/12/24 04:54:38;;;;;;;;;;;;;;;;;;;;;
2022/12/24 04:57:41;;;;;;;26.57;6.70;;;11.30;99.90;;;;;;5071856;28;20221;-90
2022/12/24 05:00:57;;;;;;;26.80;7.23;;;11.40;99.90;;;;;;5087639;28;20257;-90
2022/12/24 05:10:54;;;;;;;28.40;6.27;;;11.40;99.90;;;;;;4975719;28;20559;-91
2022/12/24 05:17:36;;;;;;;27.87;6.40;;;11.40;99.90;;;;;;4922486;28;20213;-90
2022/12/24 05:21:22;;;;;;;;;;;;;;;;;;;;;
2022/12/24 05:27:59;;;;;;;;;;;;;;;;;;;;;
2022/12/24 05:34:48;;;;;;;22.43;6.30;;;11.20;99.90;;;;;;4956063;29;20188;-90
2022/12/24 05:41:51;;;;;;;24.83;6.03;;;11.20;99.90;;;;;;4916615;29;20230;-90
2022/12/24 05:44:55;;;;;;;29.63;6.53;;;11.10;99.90;;;;;;4945235;29;20181;-90
2022/12/24 05:48:47;;;;;;;;;;;;;;;;;;;;;
2022/12/24 05:51:27;;;;;;;34.60;7.43;;;11.10;99.90;;;;;;4867684;29;20211;-90
2022/12/24 05:54:58;;;;;;;26.00;5.90;;;11.10;99.90;;;;;;4864352;29;20187;-92
2022/12/24 05:58:25;;;;;;;23.87;6.10;;;11.10;99.90;;;;;;4862424;29;20247;-92
2022/12/24 06:08:33;;;;;;;27.10;7.00;;;11.20;99.90;;;;;;4951557;28;20302;-92
2022/12/24 06:18:53;;;;;;;;;;;;;;;;;;;;;
2022/12/24 06:41:54;;;;;;;22.37;5.77;;;11.10;99.90;;;;;;4986247;28;20218;-90
2022/12/24 06:51:26;;;;;;;;;;;;;;;;;;;;;
2022/12/24 07:58:03;;;;;;;32.37;6.93;;;10.90;99.90;;;;;;5095429;28;20317;-90
2022/12/24 08:00:41;;;;;;;27.70;6.93;;;11.00;99.90;;;;;;5078405;28;20210;-91
2022/12/24 08:03:57;;;;;;;;;;;;;;;;;;;;;
2022/12/24 08:07:05;;;;;;;27.10;6.97;;;11.00;99.90;;;;;;5093856;28;20200;-91
2022/12/24 08:10:22;;;;;;;28.40;6.73;;;11.00;99.90;;;;;;5112249;28;20167;-91
2022/12/24 08:12:49;;;;;;;27.83;6.87;;;11.10;99.90;;;;;;4981169;28;20225;-90
2022/12/24 08:15:15;;;;;;;25.40;6.13;;;11.00;99.90;;;;;;5006926;28;20188;-90
2022/12/24 08:17:48;;;;;;;28.90;7.13;;;11.20;99.90;;;;;;5079943;28;20211;-90
2022/12/24 08:20:32;;;;;;;29.80;6.90;;;11.20;99.90;;;;;;5099171;28;20168;-90
2022/12/24 08:23:29;;;;;;;33.90;7.30;;;11.20;99.90;;;;;;5084214;28;20268;-90
2022/12/24 08:26:20;;;;;;;28.73;6.93;;;11.00;99.90;;;;;;5086787;28;20557;-89
2022/12/24 08:29:44;;;;;;;;;;;;;;;;;;;;;
2022/12/24 08:32:33;;;;;;;30.87;6.97;;;11.00;99.90;;;;;;5069703;28;20186;-90
2022/12/24 08:35:42;;;;;;;30.63;7.80;;;11.00;99.90;;;;;;5054841;28;20165;-90
2022/12/24 08:38:50;;;;;;;27.17;7.23;;;11.10;99.90;;;;;;4993073;28;20213;-90
2022/12/24 08:42:13;;;;;;;27.67;8.67;;;11.00;99.90;;;;;;5049658;28;20249;-89
2022/12/24 08:45:02;;;;;;;24.07;6.73;;;11.00;99.90;;;;;;5041461;28;20622;-90
2022/12/24 08:47:31;;;;;;;32.70;7.80;;;11.00;99.90;;;;;;5063896;28;20188;-89
2022/12/24 08:54:50;;;;;;;;;;;;;;;;;;;;;
2022/12/24 08:58:21;;;;;;;29.27;7.53;;;11.10;99.90;;;;;;5103111;28;20328;-88
2022/12/24 09:00:46;;;;;;;32.53;7.53;;;11.30;99.90;;;;;;5106891;28;20190;-88
2022/12/24 09:03:51;;;;;;;27.23;6.70;;;11.10;99.90;;;;;;5100083;28;20179;-88
2022/12/24 09:07:29;;;;;;;22.50;6.77;;;11.10;99.90;;;;;;5100265;28;20203;-90
2022/12/24 09:11:06;;;;;;;33.23;6.93;;;11.10;99.90;;;;;;5053308;28;20274;-90
2022/12/24 09:14:15;;;;;;;29.00;7.13;;;11.20;99.90;;;;;;4984086;28;20588;-90
2022/12/24 09:17:30;;;;;;;28.73;7.00;;;11.20;99.90;;;;;;4939342;29;20207;-92
2022/12/24 09:22:50;;;;;;;33.00;7.67;;;11.30;99.90;;;;;;4971894;28;20655;-86
2022/12/24 09:25:16;;;;;;;24.43;7.17;;;11.60;99.90;;;;;;4961321;28;20188;-86
2022/12/24 09:27:43;;;;;;;25.97;6.30;;;11.40;99.90;;;;;;4996830;28;20185;-87
2022/12/24 09:30:11;;;;;;;31.27;7.73;;;11.40;99.90;;;;;;5067940;28;20182;-87
2022/12/24 09:32:40;;;;;;;29.73;7.23;;;11.40;99.90;;;;;;5066637;28;20215;-85
2022/12/24 09:35:10;;;;;;;32.67;7.13;;;11.50;99.90;;;;;;5066398;28;20295;-89
2022/12/24 09:37:36;;;;;;;23.87;6.53;;;11.60;99.90;;;;;;5064566;28;20220;-87
2022/12/24 09:40:03;;;;;;;27.83;7.37;;;11.70;99.90;;;;;;5088413;28;20207;-88
2022/12/24 09:42:32;;;;;;;33.60;7.30;;;11.70;99.90;;;;;;5088810;28;20196;-87
2022/12/24 09:45:30;;;;;;;25.53;7.37;;;11.80;99.90;;;;;;5069296;28;20188;-88
2022/12/24 09:48:30;;;;;;;34.10;7.83;;;11.70;99.90;;;;;;5045103;28;20184;-88
2022/12/24 09:51:11;;;;;;;27.10;7.53;;;11.60;99.90;;;;;;5094740;28;20249;-87
2022/12/24 09:54:00;;;;;;;30.27;7.47;;;11.50;99.90;;;;;;5095938;28;20161;-87
2022/12/24 09:56:34;;;;;;;34.50;9.20;;;11.60;99.90;;;;;;5079172;28;20192;-85
2022/12/24 09:59:32;;;;;;;25.63;7.57;;;11.70;99.90;;;;;;5095526;28;20158;-91
2022/12/24 10:02:52;;;;;;;27.67;7.07;;;11.70;99.90;;;;;;5064846;28;20203;-90
2022/12/24 10:05:49;;;;;;;27.17;7.07;;;11.80;99.90;;;;;;5090526;28;20658;-90
2022/12/24 10:09:14;;;;;;;34.27;8.30;;;11.90;99.90;;;;;;5026442;28;20187;-90
2022/12/24 10:12:38;;;;;;;29.27;7.93;;;11.80;99.90;;;;;;5026332;28;20247;-93
2022/12/24 10:15:26;;;;;;;26.90;6.47;;;11.70;99.90;;;;;;4996075;28;20184;-90
2022/12/24 10:18:24;;;;;;;25.87;7.03;;;11.70;99.90;;;;;;5081983;28;20216;-90
2022/12/24 10:21:37;;;;;;;34.77;8.40;;;11.80;99.90;;;;;;5091473;28;20189;-90
2022/12/24 10:24:20;;;;;;;27.70;7.60;;;11.90;99.90;;;;;;5069055;28;20654;-91
2022/12/24 10:27:13;;;;;;;30.60;7.00;;;11.80;99.90;;;;;;5093915;28;20177;-90
2022/12/24 10:30:18;;;;;;;27.73;7.67;;;11.90;99.90;;;;;;5073190;28;20199;-90
2022/12/24 10:32:54;;;;;;;32.27;7.60;;;11.80;99.90;;;;;;5070062;28;20210;-91
2022/12/24 10:35:28;;;;;;;26.90;7.00;;;11.80;99.90;;;;;;5098759;28;20184;-91
2022/12/24 10:37:56;;;;;;;23.83;6.33;;;11.90;99.90;;;;;;5098851;28;20207;-92
2022/12/24 10:40:51;;;;;;;31.00;7.40;;;12.00;99.90;;;;;;5097856;28;20578;-91
2022/12/24 10:43:27;;;;;;;24.60;7.53;;;12.00;99.90;;;;;;5081243;28;20182;-91
2022/12/24 10:46:01;;;;;;;24.23;6.57;;;12.10;99.90;;;;;;5089314;28;20180;-91
2022/12/24 10:48:50;;;;;;;31.00;7.50;;;12.10;99.90;;;;;;5099940;28;20177;-89
2022/12/24 10:51:37;;;;;;;32.10;7.17;;;12.10;99.90;;;;;;5084354;28;20205;-93
2022/12/24 10:54:37;;;;;;;30.93;7.97;;;12.10;99.90;;;;;;5089699;28;20171;-92
2022/12/24 10:57:27;;;;;;;24.83;7.63;;;12.20;99.90;;;;;;5061708;28;20212;-93
2022/12/24 10:59:55;;;;;;;32.47;6.93;;;12.30;99.90;;;;;;5078990;28;20183;-90
2022/12/24 11:02:55;;;;;;;32.93;7.47;;;12.30;99.90;;;;;;5077952;28;20198;-89
2022/12/24 11:05:39;;;;;;;31.00;7.93;;;12.20;99.90;;;;;;5015958;28;20190;-91
2022/12/24 11:08:21;;;;;;;29.23;6.90;;;12.30;99.90;;;;;;5080244;28;20180;-90
2022/12/24 11:10:59;;;;;;;31.87;7.43;;;12.30;99.90;;;;;;5079305;28;20188;-91
2022/12/24 11:13:40;;;;;;;28.73;7.37;;;12.40;99.90;;;;;;5090930;28;20551;-90
2022/12/24 11:16:28;;;;;;;29.03;7.70;;;12.40;99.90;;;;;;5108592;28;20187;-89
2022/12/24 11:18:56;;;;;;;29.37;8.17;;;12.50;99.90;;;;;;5111587;28;20287;-88
2022/12/24 11:21:29;;;;;;;26.47;8.20;;;12.50;99.90;;;;;;5110086;28;20184;-90
2022/12/24 11:24:12;;;;;;;24.60;7.37;;;12.50;99.90;;;;;;5106862;28;20183;-89
2022/12/24 11:26:42;;;;;;;25.30;7.07;;;12.40;99.90;;;;;;5099747;28;20243;-93
2022/12/24 11:29:18;;;;;;;28.77;7.10;;;12.40;99.90;;;;;;5099894;28;20180;-92
2022/12/24 11:31:46;;;;;;;23.00;7.83;;;12.50;99.90;;;;;;5099778;28;20327;-91
2022/12/24 11:34:32;;;;;;;27.00;6.97;;;12.50;99.90;;;;;;5110052;28;20180;-92
2022/12/24 11:37:21;;;;;;;30.93;7.70;;;12.40;99.90;;;;;;5112918;28;20769;-90
2022/12/24 11:39:53;;;;;;;27.43;7.53;;;12.40;99.90;;;;;;5106609;28;20185;-92
2022/12/24 11:42:32;;;;;;;30.90;7.30;;;12.50;99.90;;;;;;5100040;28;20203;-93
2022/12/24 11:45:41;;;;;;;24.73;7.40;;;12.60;99.90;;;;;;5102423;28;20216;-92
2022/12/24 11:48:31;;;;;;;26.83;7.73;;;12.60;99.90;;;;;;5085407;28;20175;-91
2022/12/24 11:51:04;;;;;;;27.60;7.90;;;12.60;99.90;;;;;;5097556;28;20673;-92
2022/12/24 11:53:45;;;;;;;29.83;7.00;;;12.70;99.90;;;;;;5080554;28;20179;-90
2022/12/24 11:56:31;;;;;;;25.17;7.30;;;12.70;99.90;;;;;;5095987;28;20177;-92
2022/12/24 11:59:08;;;;;;;26.90;7.20;;;12.80;99.90;;;;;;5080737;28;20592;-91
2022/12/24 12:01:40;;;;;;;27.83;6.57;;;12.90;99.90;;;;;;5100953;28;20300;-90
2022/12/24 12:04:22;;;;;;;26.03;7.80;;;13.10;99.90;;;;;;5097482;28;20232;-91
2022/12/24 12:06:55;;;;;;;22.10;6.80;;;13.00;99.90;;;;;;5095370;28;20194;-91
2022/12/24 12:09:31;;;;;;;22.63;6.50;;;13.10;99.90;;;;;;5096192;28;20186;-91
2022/12/24 12:12:12;;;;;;;25.10;7.37;;;13.10;99.20;;;;;;5097463;28;20639;-89
2022/12/24 12:14:49;;;;;;;25.43;9.17;;;13.10;99.90;;;;;;5097554;28;20192;-88
2022/12/24 12:17:34;;;;;;;28.10;7.10;;;13.00;99.90;;;;;;5095871;28;20214;-88
2022/12/24 12:20:10;;;;;;;23.47;6.80;;;13.10;99.90;;;;;;5097188;28;20190;-88
2022/12/24 12:23:02;;;;;;;26.63;6.70;;;13.10;99.50;;;;;;5096988;28;20186;-89
2022/12/24 12:25:56;;;;;;;28.20;6.73;;;13.00;99.30;;;;;;5095612;28;20255;-88
2022/12/24 12:28:46;;;;;;;25.80;6.30;;;13.00;97.40;;;;;;5115484;28;20186;-87
2022/12/24 12:31:38;;;;;;;24.10;7.10;;;13.00;97.80;;;;;;5097887;28;20176;-87
2022/12/24 12:34:11;;;;;;;23.33;6.80;;;13.00;97.40;;;;;;5091857;28;20166;-88
2022/12/24 12:36:53;;;;;;;26.80;7.10;;;13.00;96.40;;;;;;5116017;28;20226;-88
2022/12/24 12:39:23;;;;;;;24.60;5.70;;;13.10;96.50;;;;;;5113406;28;20195;-89
2022/12/24 12:42:03;;;;;;;30.87;7.93;;;13.00;96.20;;;;;;5101054;28;20190;-87
2022/12/24 12:44:35;;;;;;;23.67;6.20;;;13.20;95.90;;;;;;5107349;28;20191;-87
2022/12/24 12:47:25;;;;;;;25.23;7.27;;;13.30;95.30;;;;;;5109188;28;20159;-88
2022/12/24 12:50:27;;;;;;;26.23;6.40;;;13.20;94.00;;;;;;5114486;28;20237;-88
2022/12/24 12:53:05;;;;;;;20.60;6.03;;;13.30;94.10;;;;;;5041973;28;20184;-87
2022/12/24 12:56:01;;;;;;;22.13;6.23;;;13.30;92.40;;;;;;5074187;28;20249;-87
2022/12/24 12:58:35;;;;;;;26.70;6.73;;;13.30;92.50;;;;;;5095521;28;20215;-87
2022/12/24 13:01:18;;;;;;;21.63;6.93;;;13.20;94.50;;;;;;5093867;28;20640;-86
2022/12/24 13:03:53;;;;;;;24.47;6.50;;;13.30;93.00;;;;;;5096547;28;20183;-86
2022/12/24 13:06:30;;;;;;;26.13;6.80;;;13.30;91.20;;;;;;5095562;28;20178;-89
2022/12/24 13:09:16;;;;;;;24.40;7.37;;;13.30;91.20;;;;;;5095672;28;20582;-87
2022/12/24 13:12:10;;;;;;;20.50;7.00;;;13.30;91.70;;;;;;5093603;28;20201;-88
2022/12/24 13:15:09;;;;;;;22.87;6.07;;;13.30;92.40;;;;;;5078112;28;20639;-89
2022/12/24 13:18:11;;;;;;;27.33;7.37;;;13.20;92.60;;;;;;5093752;28;20278;-88
2022/12/24 13:20:44;;;;;;;25.87;7.03;;;13.30;93.50;;;;;;5097953;28;20191;-89
2022/12/24 13:23:14;;;;;;;26.60;7.43;;;13.30;95.40;;;;;;5095957;28;20175;-87
2022/12/24 13:25:43;;;;;;;25.77;6.97;;;13.30;93.60;;;;;;5107053;28;20179;-87
2022/12/24 13:28:24;;;;;;;27.13;8.10;;;13.30;91.60;;;;;;5111614;28;20206;-88
2022/12/24 13:30:51;;;;;;;21.23;7.17;;;13.20;92.50;;;;;;5100205;28;20184;-88
2022/12/24 13:33:36;;;;;;;29.77;7.43;;;13.30;91.90;;;;;;5095795;28;20193;-88
2022/12/24 13:36:07;;;;;;;26.67;7.03;;;13.30;91.90;;;;;;5093870;28;20198;-88
2022/12/24 13:38:39;;;;;;;28.10;8.20;;;13.40;91.50;;;;;;5097203;28;20306;-88
2022/12/24 13:41:35;;;;;;;25.97;7.27;;;13.40;92.10;;;;;;5098369;28;20219;-89
2022/12/24 13:44:16;;;;;;;27.77;6.60;;;13.40;91.70;;;;;;5098744;28;20253;-92
2022/12/24 13:47:17;;;;;;;34.97;14.77;;;13.60;90.60;;;;;;5095980;28;20230;-87
2022/12/24 13:49:47;;;;;;;29.23;8.80;;;13.60;86.90;;;;;;5089875;28;20278;-88
2022/12/24 13:52:23;;;;;;;26.27;6.77;;;13.60;87.80;;;;;;5108532;28;20191;-89
2022/12/24 13:55:00;;;;;;;26.83;6.60;;;13.70;87.90;;;;;;5099466;28;20600;-88
2022/12/24 13:57:40;;;;;;;22.77;7.30;;;13.60;88.70;;;;;;5104620;28;20229;-87
2022/12/24 14:00:12;;;;;;;24.33;6.57;;;13.50;86.10;;;;;;5110756;28;20204;-88
2022/12/24 14:03:13;;;;;;;21.33;6.97;;;13.50;89.80;;;;;;5099308;28;20214;-90
2022/12/24 14:05:41;;;;;;;26.03;7.50;;;13.50;90.50;;;;;;5070174;28;20175;-91
2022/12/24 14:08:27;;;;;;;29.40;6.57;;;13.70;90.20;;;;;;5099206;28;20198;-91
2022/12/24 14:11:25;;;;;;;22.57;5.73;;;13.40;91.20;;;;;;5101820;28;20182;-90
2022/12/24 14:13:53;;;;;;;19.63;5.83;;;13.20;92.50;;;;;;5079400;28;20179;-91
2022/12/24 14:16:30;;;;;;;21.47;5.77;;;13.20;93.10;;;;;;5107929;28;20186;-89
2022/12/24 14:19:00;;;;;;;22.47;6.47;;;13.20;92.50;;;;;;5117591;28;20179;-87
2022/12/24 14:21:33;;;;;;;29.20;7.77;;;13.30;93.30;;;;;;5102014;28;20187;-86
2022/12/24 14:24:11;;;;;;;21.00;6.10;;;13.30;92.80;;;;;;5099960;28;20187;-88
2022/12/24 14:26:51;;;;;;;24.70;7.27;;;13.30;92.00;;;;;;5099307;28;20171;-86
2022/12/24 14:29:28;;;;;;;33.40;6.87;;;13.30;91.80;;;;;;5099056;28;20171;-88
2022/12/24 14:31:57;;;;;;;22.27;6.47;;;13.20;92.10;;;;;;5104533;28;20192;-89
2022/12/24 14:34:23;;;;;;;23.00;6.77;;;13.20;92.30;;;;;;5111530;28;20206;-88
2022/12/24 14:36:53;;;;;;;24.47;6.33;;;13.20;93.00;;;;;;5104052;28;20245;-86
2022/12/24 14:39:31;;;;;;;20.77;7.10;;;13.30;91.40;;;;;;5090347;28;20172;-88
2022/12/24 14:42:29;;;;;;;28.70;6.43;;;13.40;91.40;;;;;;5101762;28;20237;-88
2022/12/24 14:45:23;;;;;;;21.53;6.60;;;13.50;88.40;;;;;;5097281;28;20228;-87
2022/12/24 14:48:17;;;;;;;26.37;7.50;;;13.40;90.50;;;;;;5102915;28;20190;-85
2022/12/24 14:51:10;;;;;;;28.93;7.80;;;13.20;92.30;;;;;;5104659;28;20207;-86
2022/12/24 14:54:15;;;;;;;22.83;6.47;;;13.20;93.70;;;;;;5097622;28;20180;-87
2022/12/24 14:56:40;;;;;;;24.67;7.03;;;13.20;94.80;;;;;;5100846;28;20210;-86
2022/12/24 14:59:19;;;;;;;25.80;7.33;;;13.30;94.00;;;;;;5117169;28;20246;-86
2022/12/24 15:01:45;;;;;;;23.63;7.03;;;13.30;94.00;;;;;;5106489;28;20201;-87
2022/12/24 15:04:16;;;;;;;26.13;6.83;;;13.20;93.80;;;;;;5107398;28;20175;-86
2022/12/24 15:06:48;;;;;;;24.87;6.63;;;13.30;94.60;;;;;;5113513;28;20156;-86
2022/12/24 15:09:20;;;;;;;24.43;7.20;;;13.30;94.20;;;;;;5112642;28;20175;-85
2022/12/24 15:11:59;;;;;;;25.47;6.93;;;13.20;93.90;;;;;;5104572;28;20180;-87
2022/12/24 15:14:28;;;;;;;23.40;6.60;;;13.40;93.90;;;;;;5113882;28;20193;-86
2022/12/24 15:17:05;;;;;;;23.80;7.17;;;13.30;94.20;;;;;;5115369;28;20246;-86
2022/12/24 15:19:41;;;;;;;25.53;7.03;;;13.10;95.10;;;;;;5104409;28;20212;-85
2022/12/24 15:22:27;;;;;;;24.77;7.37;;;13.20;94.70;;;;;;5068149;28;20171;-87
2022/12/24 15:24:53;;;;;;;33.87;8.03;;;13.20;95.30;;;;;;5099096;28;20183;-87
2022/12/24 15:27:25;;;;;;;29.63;6.90;;;13.30;95.70;;;;;;5102692;28;20175;-87
2022/12/24 15:29:55;;;;;;;27.03;7.97;;;13.40;94.00;;;;;;5101214;28;20232;-87
2022/12/24 15:32:22;;;;;;;27.03;7.07;;;13.40;94.20;;;;;;5102857;28;20167;-86
2022/12/24 15:34:53;;;;;;;27.57;8.70;;;13.40;93.90;;;;;;5099629;28;20187;-87
2022/12/24 15:37:25;;;;;;;25.50;7.93;;;13.40;94.10;;;;;;5099141;28;20304;-87
2022/12/24 15:39:56;;;;;;;31.63;8.63;;;13.40;94.00;;;;;;5098474;28;20233;-87
2022/12/24 15:42:23;;;;;;;27.53;8.90;;;13.60;91.40;;;;;;5101705;28;20180;-87
2022/12/24 15:45:04;;;;;;;25.47;8.47;;;13.60;91.20;;;;;;5105337;28;20176;-85
2022/12/24 15:47:37;;;;;;;29.27;9.17;;;13.60;91.70;;;;;;5102449;28;20650;-87
2022/12/24 15:50:17;;;;;;;30.27;9.83;;;13.40;93.90;;;;;;5102260;28;20203;-88
2022/12/24 15:52:44;;;;;;;27.87;9.33;;;13.20;95.00;;;;;;5099567;28;20174;-90
2022/12/24 15:55:28;;;;;;;29.10;8.17;;;13.20;96.80;;;;;;5101086;28;20176;-89
2022/12/24 15:57:54;;;;;;;24.97;8.70;;;13.10;98.10;;;;;;5098543;28;20219;-87
2022/12/24 16:00:29;;;;;;;26.10;8.40;;;13.00;99.40;;;;;;5095738;28;20665;-87
2022/12/24 16:03:17;;;;;;;25.87;7.37;;;13.00;99.90;;;;;;5095993;28;20197;-86
2022/12/24 16:05:43;;;;;;;22.87;8.07;;;13.00;99.90;;;;;;5091433;28;20204;-87
2022/12/24 16:08:12;;;;;;;29.73;7.90;;;12.90;99.90;;;;;;5110053;28;20165;-87
2022/12/24 16:10:46;;;;;;;25.10;7.00;;;13.00;99.90;;;;;;5103237;28;20183;-88
2022/12/24 16:13:24;;;;;;;29.00;7.73;;;12.70;99.90;;;;;;5095921;28;20176;-87
2022/12/24 16:15:52;;;;;;;23.00;7.43;;;12.70;99.90;;;;;;5102387;28;20217;-87
2022/12/24 16:18:23;;;;;;;25.67;6.93;;;12.70;99.90;;;;;;5118202;28;20238;-86
2022/12/24 16:20:53;;;;;;;26.53;7.93;;;12.60;99.90;;;;;;5102285;28;20209;-88
2022/12/24 16:23:37;;;;;;;23.83;7.67;;;12.60;99.90;;;;;;5082504;28;20204;-88
2022/12/24 16:26:12;;;;;;;26.23;7.30;;;12.60;99.90;;;;;;5095656;28;20546;-88
2022/12/24 16:28:41;;;;;;;28.57;7.13;;;12.50;99.90;;;;;;5095091;28;20179;-89
2022/12/24 16:31:41;;;;;;;26.80;8.20;;;12.50;99.90;;;;;;5101617;28;20176;-88
2022/12/24 16:34:16;;;;;;;32.40;9.17;;;12.50;99.90;;;;;;5089455;28;20191;-87
2022/12/24 16:37:01;;;;;;;25.00;7.93;;;12.50;99.90;;;;;;5097348;28;20235;-88
2022/12/24 16:39:36;;;;;;;26.90;7.03;;;12.40;99.90;;;;;;5098803;28;20171;-88
2022/12/24 16:44:51;;;;;;;27.63;8.83;;;12.40;99.90;;;;;;5096371;28;20249;-87
2022/12/24 16:47:27;;;;;;;28.70;8.20;;;12.40;99.90;;;;;;5104509;28;20187;-87
2022/12/24 16:50:04;;;;;;;24.60;8.23;;;12.30;99.90;;;;;;5102965;28;20207;-88
2022/12/24 16:52:37;;;;;;;25.27;8.37;;;12.30;99.90;;;;;;5080768;28;20221;-87
2022/12/24 16:55:46;;;;;;;27.37;7.93;;;12.40;99.90;;;;;;5064503;28;20231;-88
2022/12/24 16:58:15;;;;;;;27.50;7.33;;;12.40;99.90;;;;;;5062749;28;20229;-87
2022/12/24 17:00:41;;;;;;;29.00;8.40;;;12.40;99.90;;;;;;5079222;28;20205;-87
2022/12/24 17:03:08;;;;;;;30.43;8.83;;;12.40;99.90;;;;;;5079173;28;20186;-87
2022/12/24 17:05:38;;;;;;;27.90;7.87;;;12.40;99.90;;;;;;5079111;28;20191;-87
2022/12/24 17:08:11;;;;;;;30.03;8.80;;;12.50;99.90;;;;;;5077339;28;20198;-88
2022/12/24 17:10:37;;;;;;;24.30;8.40;;;12.60;99.90;;;;;;5094120;28;20182;-88
2022/12/24 17:13:08;;;;;;;23.37;8.30;;;12.70;99.90;;;;;;5093817;28;20209;-90
2022/12/24 17:15:46;;;;;;;35.60;9.57;;;12.40;99.90;;;;;;5103949;28;20202;-89
2022/12/24 17:18:32;;;;;;;26.43;8.27;;;12.40;99.90;;;;;;5110453;28;20226;-90
2022/12/24 17:21:09;;;;;;;28.30;8.83;;;12.30;99.90;;;;;;5080924;28;20187;-90
2022/12/24 17:23:43;;;;;;;25.13;7.93;;;12.30;99.90;;;;;;5099041;28;20201;-90
2022/12/24 17:26:32;;;;;;;19.40;8.17;;;12.20;99.90;;;;;;5096659;28;20336;-91
2022/12/24 17:28:58;;;;;;;30.27;9.10;;;12.20;99.90;;;;;;5112968;28;20183;-91
2022/12/24 17:31:39;;;;;;;24.63;9.13;;;12.20;99.90;;;;;;5116084;28;20171;-87
2022/12/24 17:34:14;;;;;;;25.00;8.43;;;12.10;99.90;;;;;;5102927;28;20177;-89
2022/12/24 17:36:48;;;;;;;20.43;8.73;;;12.10;99.90;;;;;;5115911;28;20193;-86
2022/12/24 17:39:20;;;;;;;29.27;8.70;;;12.00;99.90;;;;;;5100629;28;20181;-88
2022/12/24 17:41:52;;;;;;;24.47;8.70;;;12.00;99.90;;;;;;5099433;28;20174;-87
2022/12/24 17:44:20;;;;;;;25.20;8.70;;;12.00;99.90;;;;;;5099848;28;20182;-87
2022/12/24 17:46:53;;;;;;;25.00;8.83;;;11.90;99.90;;;;;;5096793;28;20186;-87
2022/12/24 17:49:32;;;;;;;22.07;8.90;;;11.80;99.90;;;;;;5095417;28;20195;-87
2022/12/24 17:52:03;;;;;;;24.07;8.07;;;11.80;99.90;;;;;;5096296;28;20178;-87
2022/12/24 17:54:32;;;;;;;23.97;7.87;;;11.80;99.90;;;;;;5100729;28;20183;-87
2022/12/24 17:57:02;;;;;;;22.60;7.67;;;11.80;99.90;;;;;;5083293;28;20210;-88
2022/12/24 17:59:44;;;;;;;22.50;8.03;;;11.90;99.90;;;;;;5114294;28;20152;-86
2022/12/24 18:02:11;;;;;;;26.03;7.87;;;11.60;99.90;;;;;;5095670;28;20183;-85
2022/12/24 18:04:41;;;;;;;26.00;8.23;;;11.70;99.90;;;;;;5112758;28;20213;-86
2022/12/24 18:07:11;;;;;;;18.50;7.20;;;11.60;99.90;;;;;;5096989;28;20194;-87
2022/12/24 18:09:47;;;;;;;19.70;7.20;;;11.80;99.90;;;;;;5105348;28;20191;-88
2022/12/24 18:12:24;;;;;;;19.90;7.07;;;11.50;99.90;;;;;;5097130;28;20192;-88
2022/12/24 18:15:12;;;;;;;20.63;7.37;;;11.50;99.90;;;;;;5105391;28;20171;-88
2022/12/24 18:17:51;;;;;;;26.60;7.87;;;11.50;99.90;;;;;;5107808;28;20267;-87
2022/12/24 18:20:18;;;;;;;24.93;7.57;;;11.70;99.90;;;;;;5107328;28;20282;-88
2022/12/24 18:22:55;;;;;;;22.10;7.63;;;11.40;99.90;;;;;;5087437;28;20188;-89
2022/12/24 18:25:22;;;;;;;22.70;8.00;;;11.40;99.90;;;;;;5089891;28;20631;-87
2022/12/24 18:31:01;;;;;;;22.70;8.33;;;11.30;99.90;;;;;;5088146;28;20209;-86
2022/12/24 18:33:51;;;;;;;23.20;7.60;;;11.40;99.90;;;;;;5111752;28;20298;-87
2022/12/24 18:36:18;;;;;;;18.87;7.17;;;11.30;99.90;;;;;;5084621;28;20297;-92
2022/12/24 18:38:50;;;;;;;22.43;8.13;;;11.40;99.90;;;;;;5103999;28;20241;-89
2022/12/24 18:41:31;;;;;;;29.37;7.90;;;11.40;99.90;;;;;;5102608;28;20187;-89